Accueil
METAR-TAF:

METAR-TAF

Aéroports :

Mount Carmel Municipal Airport

Mount Carmel, Illinois, États-Unis

latitude: 38-36-23N, longitude: 087-43-36W, altitude: 131 m

Observation

Le bulletin a été fait il y a 30 minutes, à 01:55 UTC
Vent 4 kt de sud/sud-ouest
Température 20°C
Humidité 73%
Pression 1008 hPa
Visibilité: 16.1 km
Ciel clair

METAR: KAJG 280155Z AUTO 21004KT 10SM CLR 20/15 A2978 RMK AO2 T02010152

Heure: 21:25 (02:25 UTC)


TAF: absent

Observations et prévisions météorologiques de plus de 4000 aéroports (messages METAR et TAF).

Les stations disponibles sont représentées par des disques jaunes et rouges sur la carte.

Passer la souris dessus pour voir le nom de la station.

Cliquer dessus pour voir les observations et prévisions météorologiques.

Pour changer de carte: cliquez sur les boutons verts avec une croix noire pour zoomer, sur le bouton vert avec un tiret pour effectuer un zoom arrière, ou sur les flèches vertes pour les cartes adjacentes.


METAR-TAF: